Norwood, Massachusetts
Current Conditions -  °F | °C
As of 7:00 AM on Friday 24 Oct 2014 (Local Time) from KOWD Reporting Station
Overcast Overcast  
Wind Chill: 50°   Ceiling: 1000
Heat Index: 50°   Visibility: 7mi
Dew Point: 48°   Wind: 7mph
Humidity: 93%   Direction: 330°NNW
Pressure: 29.68"   Gusts: NA
Location:  42.2°N, 71.2°W
Report Text: KOWD 241100Z 33006KT 7SM BKN010 OVC015 10/09 A2968 RMK AO2 CIG 008V013 T01000089
Loading
Personal Weather Stations






























Interactive Weather Map
Tropical Storm Tracking
New forecast layout! Learn more

10-Day Weather Forecast

Advertisements
Track Severe Weather on mobile